Salty, Texas
Current Conditions -  °F | °C
As of 4:35 PM on Tuesday 21 Oct 2014 (Local Time) from KT35 Reporting Station
Clear Clear  
Wind Chill: 82°   Ceiling: Unl
Heat Index: 82°   Visibility: 10mi
Dew Point: 53°   Wind: 7mph
Humidity: 36%   Direction: 100°E
Pressure: 29.99"   Gusts: NA
Location:  30.6499°N, 96.9973°W
Report Text: KT35 212135Z AUTO 10006KT 10SM CLR 28/11 A2999 RMK AO2 T02760114
Loading
Personal Weather Stations






























Interactive Weather Map
Tropical Storm Tracking
New forecast layout! Learn more

10-Day Weather Forecast

Advertisements
Track Severe Weather on mobile